sensor_id;sensor_type;location;lat;lon;timestamp;temperature;humidity
15630;DHT22;7914;50.842;0.166;2023-02-03T00:01:23;9.10;99.90
15630;DHT22;7914;50.842;0.166;2023-02-03T00:03:49;9.00;99.90
15630;DHT22;7914;50.842;0.166;2023-02-03T00:06:15;9.00;99.90
15630;DHT22;7914;50.842;0.166;2023-02-03T00:08:41;9.00;99.90
15630;DHT22;7914;50.842;0.166;2023-02-03T00:11:06;9.00;99.90
15630;DHT22;7914;50.842;0.166;2023-02-03T00:13:33;9.00;99.90
15630;DHT22;7914;50.842;0.166;2023-02-03T00:15:59;8.90;99.90
15630;DHT22;7914;50.842;0.166;2023-02-03T00:18:26;8.90;99.90
15630;DHT22;7914;50.842;0.166;2023-02-03T00:20:52;8.90;99.90
15630;DHT22;7914;50.842;0.166;2023-02-03T00:23:18;8.80;99.90
15630;DHT22;7914;50.842;0.166;2023-02-03T00:25:44;8.80;99.90
15630;DHT22;7914;50.842;0.166;2023-02-03T00:28:09;8.80;99.90
15630;DHT22;7914;50.842;0.166;2023-02-03T00:30:36;8.90;99.90
15630;DHT22;7914;50.842;0.166;2023-02-03T00:33:03;9.00;99.90
15630;DHT22;7914;50.842;0.166;2023-02-03T00:35:29;8.90;99.90
15630;DHT22;7914;50.842;0.166;2023-02-03T00:37:56;9.00;99.90
15630;DHT22;7914;50.842;0.166;2023-02-03T00:40:24;9.00;99.90
15630;DHT22;7914;50.842;0.166;2023-02-03T00:42:50;9.00;99.90
15630;DHT22;7914;50.842;0.166;2023-02-03T00:45:17;9.00;99.90
15630;DHT22;7914;50.842;0.166;2023-02-03T00:47:42;9.00;99.90
15630;DHT22;7914;50.842;0.166;2023-02-03T00:50:09;9.10;99.90
15630;DHT22;7914;50.842;0.166;2023-02-03T00:52:35;9.10;99.90
15630;DHT22;7914;50.842;0.166;2023-02-03T00:55:01;9.60;99.90
15630;DHT22;7914;50.842;0.166;2023-02-03T00:57:27;9.10;99.90
15630;DHT22;7914;50.842;0.166;2023-02-03T00:59:53;9.00;99.90
15630;DHT22;7914;50.842;0.166;2023-02-03T01:02:19;9.10;99.90
15630;DHT22;7914;50.842;0.166;2023-02-03T01:04:45;9.00;99.90
15630;DHT22;7914;50.842;0.166;2023-02-03T01:07:10;9.00;99.90
15630;DHT22;7914;50.842;0.166;2023-02-03T01:09:36;9.00;99.90
15630;DHT22;7914;50.842;0.166;2023-02-03T01:12:03;9.00;99.90
15630;DHT22;7914;50.842;0.166;2023-02-03T01:14:29;9.00;99.90
15630;DHT22;7914;50.842;0.166;2023-02-03T01:16:55;9.00;99.90
15630;DHT22;7914;50.842;0.166;2023-02-03T01:19:21;9.00;99.90
15630;DHT22;7914;50.842;0.166;2023-02-03T01:21:47;9.10;99.90
15630;DHT22;7914;50.842;0.166;2023-02-03T01:24:13;9.00;99.90
15630;DHT22;7914;50.842;0.166;2023-02-03T01:26:41;8.90;99.90
15630;DHT22;7914;50.842;0.166;2023-02-03T01:29:07;8.80;99.90
15630;DHT22;7914;50.842;0.166;2023-02-03T01:31:36;8.90;99.90
15630;DHT22;7914;50.842;0.166;2023-02-03T01:34:05;8.90;99.90
15630;DHT22;7914;50.842;0.166;2023-02-03T01:36:32;8.90;99.90
15630;DHT22;7914;50.842;0.166;2023-02-03T01:38:58;8.80;99.90
15630;DHT22;7914;50.842;0.166;2023-02-03T01:41:27;8.90;99.90
15630;DHT22;7914;50.842;0.166;2023-02-03T01:43:55;8.90;99.90
15630;DHT22;7914;50.842;0.166;2023-02-03T01:48:51;8.90;99.90
15630;DHT22;7914;50.842;0.166;2023-02-03T01:51:18;8.90;99.90
15630;DHT22;7914;50.842;0.166;2023-02-03T01:53:44;8.90;99.90
15630;DHT22;7914;50.842;0.166;2023-02-03T01:56:11;8.80;99.90
15630;DHT22;7914;50.842;0.166;2023-02-03T01:58:38;8.80;99.90
15630;DHT22;7914;50.842;0.166;2023-02-03T02:01:05;8.80;99.90
15630;DHT22;7914;50.842;0.166;2023-02-03T02:03:35;8.90;99.90
15630;DHT22;7914;50.842;0.166;2023-02-03T02:06:08;9.60;99.90
15630;DHT22;7914;50.842;0.166;2023-02-03T02:08:35;8.90;99.90
15630;DHT22;7914;50.842;0.166;2023-02-03T02:11:01;8.90;99.90
15630;DHT22;7914;50.842;0.166;2023-02-03T02:13:30;8.80;99.90
15630;DHT22;7914;50.842;0.166;2023-02-03T02:21:46;8.80;99.90
15630;DHT22;7914;50.842;0.166;2023-02-03T02:41:15;8.80;99.90
15630;DHT22;7914;50.842;0.166;2023-02-03T02:44:06;8.90;99.90
15630;DHT22;7914;50.842;0.166;2023-02-03T02:46:48;8.90;99.90
15630;DHT22;7914;50.842;0.166;2023-02-03T02:49:26;8.90;99.90
15630;DHT22;7914;50.842;0.166;2023-02-03T02:51:54;9.00;99.90
15630;DHT22;7914;50.842;0.166;2023-02-03T02:54:23;8.90;99.90
15630;DHT22;7914;50.842;0.166;2023-02-03T02:56:53;8.90;99.90
15630;DHT22;7914;50.842;0.166;2023-02-03T02:59:20;8.90;99.90
15630;DHT22;7914;50.842;0.166;2023-02-03T03:01:45;8.90;99.90
15630;DHT22;7914;50.842;0.166;2023-02-03T03:04:16;8.90;99.90
15630;DHT22;7914;50.842;0.166;2023-02-03T03:07:02;9.00;99.90
15630;DHT22;7914;50.842;0.166;2023-02-03T03:09:34;9.00;99.90
15630;DHT22;7914;50.842;0.166;2023-02-03T03:12:07;9.00;99.90
15630;DHT22;7914;50.842;0.166;2023-02-03T03:14:35;9.00;99.90
15630;DHT22;7914;50.842;0.166;2023-02-03T03:17:06;9.00;99.90
15630;DHT22;7914;50.842;0.166;2023-02-03T03:19:40;9.00;99.90
15630;DHT22;7914;50.842;0.166;2023-02-03T03:22:10;9.00;99.90
15630;DHT22;7914;50.842;0.166;2023-02-03T03:24:54;9.00;99.90
15630;DHT22;7914;50.842;0.166;2023-02-03T03:27:22;9.00;99.90
15630;DHT22;7914;50.842;0.166;2023-02-03T03:29:59;9.00;99.90
15630;DHT22;7914;50.842;0.166;2023-02-03T03:32:25;9.00;99.90
15630;DHT22;7914;50.842;0.166;2023-02-03T03:34:53;9.00;99.90
15630;DHT22;7914;50.842;0.166;2023-02-03T03:37:23;9.00;99.90
15630;DHT22;7914;50.842;0.166;2023-02-03T03:39:55;9.00;99.90
15630;DHT22;7914;50.842;0.166;2023-02-03T03:42:50;9.00;99.90
15630;DHT22;7914;50.842;0.166;2023-02-03T03:45:40;9.00;99.90
15630;DHT22;7914;50.842;0.166;2023-02-03T03:48:12;9.00;99.90
15630;DHT22;7914;50.842;0.166;2023-02-03T03:50:51;9.00;99.90
15630;DHT22;7914;50.842;0.166;2023-02-03T03:53:18;8.90;99.90
15630;DHT22;7914;50.842;0.166;2023-02-03T03:55:48;9.00;99.90
15630;DHT22;7914;50.842;0.166;2023-02-03T03:58:23;8.90;99.90
15630;DHT22;7914;50.842;0.166;2023-02-03T04:00:49;8.90;99.90
15630;DHT22;7914;50.842;0.166;2023-02-03T04:03:19;8.90;99.90
15630;DHT22;7914;50.842;0.166;2023-02-03T04:05:46;8.90;99.90
15630;DHT22;7914;50.842;0.166;2023-02-03T04:08:12;8.80;99.90
15630;DHT22;7914;50.842;0.166;2023-02-03T04:10:39;8.90;99.90
15630;DHT22;7914;50.842;0.166;2023-02-03T04:13:06;8.90;99.90
15630;DHT22;7914;50.842;0.166;2023-02-03T04:15:33;8.90;99.90
15630;DHT22;7914;50.842;0.166;2023-02-03T04:17:59;8.80;99.90
15630;DHT22;7914;50.842;0.166;2023-02-03T04:20:29;8.80;99.90
15630;DHT22;7914;50.842;0.166;2023-02-03T04:22:56;8.80;99.90
15630;DHT22;7914;50.842;0.166;2023-02-03T04:25:23;8.80;99.90
15630;DHT22;7914;50.842;0.166;2023-02-03T04:27:49;8.70;99.90
15630;DHT22;7914;50.842;0.166;2023-02-03T04:30:15;8.70;99.90
15630;DHT22;7914;50.842;0.166;2023-02-03T04:32:45;8.70;99.90
15630;DHT22;7914;50.842;0.166;2023-02-03T04:35:11;8.80;99.90
15630;DHT22;7914;50.842;0.166;2023-02-03T04:37:37;8.70;99.90
15630;DHT22;7914;50.842;0.166;2023-02-03T04:40:03;8.70;99.90
15630;DHT22;7914;50.842;0.166;2023-02-03T04:42:29;8.70;99.90
15630;DHT22;7914;50.842;0.166;2023-02-03T04:44:55;8.60;99.90
15630;DHT22;7914;50.842;0.166;2023-02-03T04:47:20;8.60;99.90
15630;DHT22;7914;50.842;0.166;2023-02-03T04:49:46;8.50;99.90
15630;DHT22;7914;50.842;0.166;2023-02-03T04:52:12;8.70;99.90
15630;DHT22;7914;50.842;0.166;2023-02-03T04:54:38;8.60;99.90
15630;DHT22;7914;50.842;0.166;2023-02-03T04:57:04;8.60;99.90
15630;DHT22;7914;50.842;0.166;2023-02-03T04:59:29;8.50;99.90
15630;DHT22;7914;50.842;0.166;2023-02-03T05:01:55;8.60;99.90
15630;DHT22;7914;50.842;0.166;2023-02-03T05:04:21;8.60;99.90
15630;DHT22;7914;50.842;0.166;2023-02-03T05:06:47;8.60;99.90
15630;DHT22;7914;50.842;0.166;2023-02-03T05:09:12;8.60;99.90
15630;DHT22;7914;50.842;0.166;2023-02-03T05:11:38;8.60;99.90
15630;DHT22;7914;50.842;0.166;2023-02-03T05:14:04;8.70;99.90
15630;DHT22;7914;50.842;0.166;2023-02-03T05:16:29;8.60;99.90
15630;DHT22;7914;50.842;0.166;2023-02-03T05:18:55;8.60;99.90
15630;DHT22;7914;50.842;0.166;2023-02-03T05:21:21;8.60;99.90
15630;DHT22;7914;50.842;0.166;2023-02-03T05:23:47;8.60;99.90
15630;DHT22;7914;50.842;0.166;2023-02-03T05:26:12;8.60;99.90
15630;DHT22;7914;50.842;0.166;2023-02-03T05:28:38;8.60;99.90
15630;DHT22;7914;50.842;0.166;2023-02-03T05:31:04;8.60;99.90
15630;DHT22;7914;50.842;0.166;2023-02-03T05:33:30;8.60;99.90
15630;DHT22;7914;50.842;0.166;2023-02-03T05:35:55;8.60;99.90
15630;DHT22;7914;50.842;0.166;2023-02-03T05:38:21;8.60;99.90
15630;DHT22;7914;50.842;0.166;2023-02-03T05:40:47;8.50;99.90
15630;DHT22;7914;50.842;0.166;2023-02-03T05:43:32;8.60;99.90
15630;DHT22;7914;50.842;0.166;2023-02-03T05:45:59;8.60;99.90
15630;DHT22;7914;50.842;0.166;2023-02-03T05:48:26;8.50;99.90
15630;DHT22;7914;50.842;0.166;2023-02-03T05:50:51;8.50;99.90
15630;DHT22;7914;50.842;0.166;2023-02-03T05:53:17;8.60;99.90
15630;DHT22;7914;50.842;0.166;2023-02-03T05:55:43;8.60;99.90
15630;DHT22;7914;50.842;0.166;2023-02-03T05:58:08;8.60;99.90
15630;DHT22;7914;50.842;0.166;2023-02-03T06:00:34;8.50;99.90
15630;DHT22;7914;50.842;0.166;2023-02-03T06:03:01;8.50;99.90
15630;DHT22;7914;50.842;0.166;2023-02-03T06:05:27;8.50;99.90
15630;DHT22;7914;50.842;0.166;2023-02-03T06:07:53;8.50;99.90
15630;DHT22;7914;50.842;0.166;2023-02-03T06:10:19;8.50;99.90
15630;DHT22;7914;50.842;0.166;2023-02-03T06:12:45;8.50;99.90
15630;DHT22;7914;50.842;0.166;2023-02-03T06:15:11;8.60;99.90
15630;DHT22;7914;50.842;0.166;2023-02-03T06:17:37;8.60;99.90
15630;DHT22;7914;50.842;0.166;2023-02-03T06:20:04;8.60;99.90
15630;DHT22;7914;50.842;0.166;2023-02-03T06:22:30;8.60;99.90
15630;DHT22;7914;50.842;0.166;2023-02-03T06:24:56;8.60;99.90
15630;DHT22;7914;50.842;0.166;2023-02-03T06:27:22;8.60;99.90
15630;DHT22;7914;50.842;0.166;2023-02-03T06:29:47;8.60;99.90
15630;DHT22;7914;50.842;0.166;2023-02-03T06:32:13;8.60;99.90
15630;DHT22;7914;50.842;0.166;2023-02-03T06:34:39;8.60;99.90
15630;DHT22;7914;50.842;0.166;2023-02-03T06:37:04;8.60;99.90
15630;DHT22;7914;50.842;0.166;2023-02-03T06:39:30;8.60;99.90
15630;DHT22;7914;50.842;0.166;2023-02-03T06:41:56;8.50;99.90
15630;DHT22;7914;50.842;0.166;2023-02-03T06:44:21;8.40;99.90
15630;DHT22;7914;50.842;0.166;2023-02-03T06:46:47;8.50;99.90
15630;DHT22;7914;50.842;0.166;2023-02-03T06:49:13;8.50;99.90
15630;DHT22;7914;50.842;0.166;2023-02-03T06:51:38;8.40;99.90
15630;DHT22;7914;50.842;0.166;2023-02-03T06:54:04;8.30;99.90
15630;DHT22;7914;50.842;0.166;2023-02-03T06:56:30;8.40;99.90
15630;DHT22;7914;50.842;0.166;2023-02-03T06:58:56;8.40;99.90
15630;DHT22;7914;50.842;0.166;2023-02-03T07:01:23;8.30;99.90
15630;DHT22;7914;50.842;0.166;2023-02-03T07:03:50;8.30;99.90
15630;DHT22;7914;50.842;0.166;2023-02-03T07:06:16;8.30;99.90
15630;DHT22;7914;50.842;0.166;2023-02-03T07:08:42;8.20;99.90
15630;DHT22;7914;50.842;0.166;2023-02-03T07:11:09;8.30;99.90
15630;DHT22;7914;50.842;0.166;2023-02-03T07:13:35;8.20;99.90
15630;DHT22;7914;50.842;0.166;2023-02-03T07:16:01;8.30;99.90
15630;DHT22;7914;50.842;0.166;2023-02-03T07:18:26;8.30;99.90
15630;DHT22;7914;50.842;0.166;2023-02-03T07:20:52;8.30;99.90
15630;DHT22;7914;50.842;0.166;2023-02-03T07:23:18;8.30;99.90
15630;DHT22;7914;50.842;0.166;2023-02-03T07:25:44;8.70;99.90
15630;DHT22;7914;50.842;0.166;2023-02-03T07:28:10;8.20;99.90
15630;DHT22;7914;50.842;0.166;2023-02-03T07:30:36;8.10;99.90
15630;DHT22;7914;50.842;0.166;2023-02-03T07:33:02;8.10;99.90
15630;DHT22;7914;50.842;0.166;2023-02-03T07:35:27;8.10;99.90
15630;DHT22;7914;50.842;0.166;2023-02-03T07:37:53;8.10;99.90
15630;DHT22;7914;50.842;0.166;2023-02-03T07:40:19;8.10;99.90
15630;DHT22;7914;50.842;0.166;2023-02-03T07:42:46;8.00;99.90
15630;DHT22;7914;50.842;0.166;2023-02-03T07:45:14;8.00;99.90
15630;DHT22;7914;50.842;0.166;2023-02-03T07:47:41;8.00;99.90
15630;DHT22;7914;50.842;0.166;2023-02-03T07:50:08;8.00;99.90
15630;DHT22;7914;50.842;0.166;2023-02-03T07:52:34;8.10;99.90
15630;DHT22;7914;50.842;0.166;2023-02-03T07:55:00;8.20;99.90
15630;DHT22;7914;50.842;0.166;2023-02-03T07:57:26;8.20;99.90
15630;DHT22;7914;50.842;0.166;2023-02-03T07:59:51;8.30;99.90
15630;DHT22;7914;50.842;0.166;2023-02-03T08:02:17;8.30;99.90
15630;DHT22;7914;50.842;0.166;2023-02-03T08:04:43;8.30;99.90
15630;DHT22;7914;50.842;0.166;2023-02-03T08:07:09;8.40;99.90
15630;DHT22;7914;50.842;0.166;2023-02-03T08:09:34;8.50;99.90
15630;DHT22;7914;50.842;0.166;2023-02-03T08:12:00;8.50;99.90
15630;DHT22;7914;50.842;0.166;2023-02-03T08:14:26;8.50;99.90
15630;DHT22;7914;50.842;0.166;2023-02-03T08:16:52;8.60;99.90
15630;DHT22;7914;50.842;0.166;2023-02-03T08:19:17;8.60;99.90
15630;DHT22;7914;50.842;0.166;2023-02-03T08:21:43;8.60;99.90
15630;DHT22;7914;50.842;0.166;2023-02-03T08:24:09;8.60;99.90
15630;DHT22;7914;50.842;0.166;2023-02-03T08:26:35;8.70;99.90
15630;DHT22;7914;50.842;0.166;2023-02-03T08:29:01;8.70;99.90
15630;DHT22;7914;50.842;0.166;2023-02-03T08:31:28;8.60;99.90
15630;DHT22;7914;50.842;0.166;2023-02-03T08:33:53;8.70;99.90
15630;DHT22;7914;50.842;0.166;2023-02-03T08:36:19;8.60;99.90
15630;DHT22;7914;50.842;0.166;2023-02-03T08:38:45;8.70;99.90
15630;DHT22;7914;50.842;0.166;2023-02-03T08:41:12;8.70;99.90
15630;DHT22;7914;50.842;0.166;2023-02-03T08:43:38;8.80;99.90
15630;DHT22;7914;50.842;0.166;2023-02-03T08:46:06;8.80;99.90
15630;DHT22;7914;50.842;0.166;2023-02-03T08:48:32;8.90;99.90
15630;DHT22;7914;50.842;0.166;2023-02-03T08:50:58;8.90;99.90
15630;DHT22;7914;50.842;0.166;2023-02-03T08:53:24;9.00;99.90
15630;DHT22;7914;50.842;0.166;2023-02-03T08:55:49;9.00;99.90
15630;DHT22;7914;50.842;0.166;2023-02-03T08:58:15;9.00;99.90
15630;DHT22;7914;50.842;0.166;2023-02-03T09:00:41;9.10;99.90
15630;DHT22;7914;50.842;0.166;2023-02-03T09:03:07;9.00;99.90
15630;DHT22;7914;50.842;0.166;2023-02-03T09:05:33;9.00;99.90
15630;DHT22;7914;50.842;0.166;2023-02-03T09:07:59;9.10;99.90
15630;DHT22;7914;50.842;0.166;2023-02-03T09:10:25;9.10;99.90
15630;DHT22;7914;50.842;0.166;2023-02-03T09:12:51;9.20;99.90
15630;DHT22;7914;50.842;0.166;2023-02-03T09:15:16;9.30;99.90
15630;DHT22;7914;50.842;0.166;2023-02-03T09:17:42;9.40;99.90
15630;DHT22;7914;50.842;0.166;2023-02-03T09:20:08;9.40;99.90
15630;DHT22;7914;50.842;0.166;2023-02-03T09:22:34;9.50;99.90
15630;DHT22;7914;50.842;0.166;2023-02-03T09:25:00;9.50;99.90
15630;DHT22;7914;50.842;0.166;2023-02-03T09:27:26;9.60;99.90
15630;DHT22;7914;50.842;0.166;2023-02-03T09:29:51;9.60;99.90
15630;DHT22;7914;50.842;0.166;2023-02-03T09:32:17;9.60;99.90
15630;DHT22;7914;50.842;0.166;2023-02-03T09:34:42;9.60;99.90
15630;DHT22;7914;50.842;0.166;2023-02-03T09:37:08;9.70;99.90
15630;DHT22;7914;50.842;0.166;2023-02-03T09:39:34;9.70;99.90
15630;DHT22;7914;50.842;0.166;2023-02-03T09:42:05;9.80;99.90
15630;DHT22;7914;50.842;0.166;2023-02-03T09:45:13;9.80;99.90
15630;DHT22;7914;50.842;0.166;2023-02-03T09:47:43;9.90;99.90
15630;DHT22;7914;50.842;0.166;2023-02-03T09:50:30;10.10;99.90
15630;DHT22;7914;50.842;0.166;2023-02-03T09:52:58;10.10;99.90
15630;DHT22;7914;50.842;0.166;2023-02-03T09:55:38;10.10;99.90
15630;DHT22;7914;50.842;0.166;2023-02-03T09:58:11;10.20;99.90
15630;DHT22;7914;50.842;0.166;2023-02-03T10:00:42;10.20;99.90
15630;DHT22;7914;50.842;0.166;2023-02-03T10:08:26;10.10;99.90
15630;DHT22;7914;50.842;0.166;2023-02-03T10:10:59;10.10;99.90
15630;DHT22;7914;50.842;0.166;2023-02-03T10:18:56;10.20;99.90
15630;DHT22;7914;50.842;0.166;2023-02-03T10:23:59;10.20;99.90
15630;DHT22;7914;50.842;0.166;2023-02-03T10:26:27;10.40;99.90
15630;DHT22;7914;50.842;0.166;2023-02-03T10:29:00;10.40;99.90
15630;DHT22;7914;50.842;0.166;2023-02-03T10:31:31;10.40;99.90
15630;DHT22;7914;50.842;0.166;2023-02-03T10:34:07;10.40;99.90
15630;DHT22;7914;50.842;0.166;2023-02-03T10:36:46;10.60;99.90
15630;DHT22;7914;50.842;0.166;2023-02-03T10:39:31;10.60;99.90
15630;DHT22;7914;50.842;0.166;2023-02-03T10:42:00;10.90;99.90
15630;DHT22;7914;50.842;0.166;2023-02-03T10:44:38;11.00;99.90
15630;DHT22;7914;50.842;0.166;2023-02-03T10:49:41;11.40;99.90
15630;DHT22;7914;50.842;0.166;2023-02-03T10:52:24;11.50;99.90
15630;DHT22;7914;50.842;0.166;2023-02-03T10:54:50;11.60;99.90
15630;DHT22;7914;50.842;0.166;2023-02-03T10:57:16;11.70;91.00
15630;DHT22;7914;50.842;0.166;2023-02-03T10:59:44;11.80;1.00
15630;DHT22;7914;50.842;0.166;2023-02-03T11:02:24;11.80;1.00
15630;DHT22;7914;50.842;0.166;2023-02-03T11:07:42;11.70;1.00
15630;DHT22;7914;50.842;0.166;2023-02-03T11:10:28;11.60;1.00
15630;DHT22;7914;50.842;0.166;2023-02-03T11:13:20;11.50;1.00
15630;DHT22;7914;50.842;0.166;2023-02-03T11:16:15;11.50;1.00
15630;DHT22;7914;50.842;0.166;2023-02-03T11:21:31;11.30;1.00
15630;DHT22;7914;50.842;0.166;2023-02-03T11:26:46;11.30;1.00
15630;DHT22;7914;50.842;0.166;2023-02-03T11:29:18;11.20;1.00
15630;DHT22;7914;50.842;0.166;2023-02-03T11:31:48;11.10;99.90
15630;DHT22;7914;50.842;0.166;2023-02-03T11:34:18;11.10;92.20
15630;DHT22;7914;50.842;0.166;2023-02-03T11:36:44;11.10;54.80
15630;DHT22;7914;50.842;0.166;2023-02-03T11:41:40;11.20;99.90
15630;DHT22;7914;50.842;0.166;2023-02-03T11:44:11;11.20;99.90
15630;DHT22;7914;50.842;0.166;2023-02-03T11:46:38;11.30;98.10
15630;DHT22;7914;50.842;0.166;2023-02-03T11:52:00;11.50;34.30
15630;DHT22;7914;50.842;0.166;2023-02-03T12:05:22;12.20;1.00
15630;DHT22;7914;50.842;0.166;2023-02-03T12:24:34;12.80;1.00
15630;DHT22;7914;50.842;0.166;2023-02-03T12:29:57;12.90;1.00
15630;DHT22;7914;50.842;0.166;2023-02-03T12:35:22;12.70;1.00
15630;DHT22;7914;50.842;0.166;2023-02-03T12:40:46;12.70;1.00
15630;DHT22;7914;50.842;0.166;2023-02-03T12:43:24;12.70;1.00
15630;DHT22;7914;50.842;0.166;2023-02-03T12:45:56;12.60;1.00
15630;DHT22;7914;50.842;0.166;2023-02-03T12:48:28;12.60;1.00
15630;DHT22;7914;50.842;0.166;2023-02-03T12:51:00;12.60;1.00
15630;DHT22;7914;50.842;0.166;2023-02-03T12:53:31;12.60;1.00
15630;DHT22;7914;50.842;0.166;2023-02-03T12:56:08;12.70;1.00
15630;DHT22;7914;50.842;0.166;2023-02-03T12:58:51;12.80;1.00
15630;DHT22;7914;50.842;0.166;2023-02-03T13:01:33;12.60;1.00
15630;DHT22;7914;50.842;0.166;2023-02-03T13:04:07;12.60;1.00
15630;DHT22;7914;50.842;0.166;2023-02-03T13:06:43;12.60;1.00
15630;DHT22;7914;50.842;0.166;2023-02-03T13:09:48;12.70;1.00
15630;DHT22;7914;50.842;0.166;2023-02-03T13:12:40;12.80;1.00
15630;DHT22;7914;50.842;0.166;2023-02-03T13:18:07;12.90;1.00
15630;DHT22;7914;50.842;0.166;2023-02-03T13:20:35;13.10;1.00
15630;DHT22;7914;50.842;0.166;2023-02-03T13:23:07;13.20;1.00
15630;DHT22;7914;50.842;0.166;2023-02-03T13:40:02;13.60;99.90
15630;DHT22;7914;50.842;0.166;2023-02-03T13:42:36;13.60;99.90
15630;DHT22;7914;50.842;0.166;2023-02-03T13:45:23;13.70;99.90
15630;DHT22;7914;50.842;0.166;2023-02-03T13:47:52;13.70;45.00
15630;DHT22;7914;50.842;0.166;2023-02-03T13:50:20;13.70;93.50
15630;DHT22;7914;50.842;0.166;2023-02-03T13:52:54;13.60;1.00
15630;DHT22;7914;50.842;0.166;2023-02-03T13:55:32;13.60;16.70
15630;DHT22;7914;50.842;0.166;2023-02-03T13:57:59;13.60;1.00
15630;DHT22;7914;50.842;0.166;2023-02-03T14:03:20;13.40;1.00
15630;DHT22;7914;50.842;0.166;2023-02-03T14:06:04;13.30;1.00
15630;DHT22;7914;50.842;0.166;2023-02-03T14:16:36;13.20;20.00
15630;DHT22;7914;50.842;0.166;2023-02-03T14:19:03;13.20;1.00
15630;DHT22;7914;50.842;0.166;2023-02-03T14:21:47;13.10;1.00
15630;DHT22;7914;50.842;0.166;2023-02-03T14:24:14;13.00;38.40
15630;DHT22;7914;50.842;0.166;2023-02-03T14:26:46;13.00;68.40
15630;DHT22;7914;50.842;0.166;2023-02-03T14:29:33;13.00;99.90
15630;DHT22;7914;50.842;0.166;2023-02-03T14:32:02;13.00;99.90
15630;DHT22;7914;50.842;0.166;2023-02-03T14:37:26;13.10;99.90
15630;DHT22;7914;50.842;0.166;2023-02-03T14:40:22;13.10;99.90
15630;DHT22;7914;50.842;0.166;2023-02-03T14:43:18;13.00;99.90
15630;DHT22;7914;50.842;0.166;2023-02-03T14:52:03;13.00;99.90
15630;DHT22;7914;50.842;0.166;2023-02-03T14:57:48;13.00;99.90
15630;DHT22;7914;50.842;0.166;2023-02-03T15:05:38;12.90;99.90
15630;DHT22;7914;50.842;0.166;2023-02-03T15:08:35;12.90;99.90
15630;DHT22;7914;50.842;0.166;2023-02-03T15:11:25;12.80;99.90
15630;DHT22;7914;50.842;0.166;2023-02-03T15:13:51;12.80;99.90
15630;DHT22;7914;50.842;0.166;2023-02-03T15:16:20;12.80;99.90
15630;DHT22;7914;50.842;0.166;2023-02-03T15:18:53;12.80;99.90
15630;DHT22;7914;50.842;0.166;2023-02-03T15:21:23;12.60;99.90
15630;DHT22;7914;50.842;0.166;2023-02-03T15:23:48;12.60;99.90
15630;DHT22;7914;50.842;0.166;2023-02-03T15:26:24;12.60;99.90
15630;DHT22;7914;50.842;0.166;2023-02-03T15:29:01;12.60;99.90
15630;DHT22;7914;50.842;0.166;2023-02-03T15:31:36;12.50;99.90
15630;DHT22;7914;50.842;0.166;2023-02-03T15:34:26;12.40;99.90
15630;DHT22;7914;50.842;0.166;2023-02-03T15:36:56;12.40;99.90
15630;DHT22;7914;50.842;0.166;2023-02-03T15:42:52;12.30;99.90
15630;DHT22;7914;50.842;0.166;2023-02-03T15:50:32;12.10;99.90
15630;DHT22;7914;50.842;0.166;2023-02-03T15:53:04;12.10;99.90
15630;DHT22;7914;50.842;0.166;2023-02-03T15:55:54;12.00;1.00
15630;DHT22;7914;50.842;0.166;2023-02-03T15:58:26;12.00;99.90
15630;DHT22;7914;50.842;0.166;2023-02-03T16:00:58;12.00;1.00
15630;DHT22;7914;50.842;0.166;2023-02-03T16:03:57;11.90;1.00
15630;DHT22;7914;50.842;0.166;2023-02-03T16:08:50;11.80;1.00
15630;DHT22;7914;50.842;0.166;2023-02-03T16:11:36;11.80;1.00
15630;DHT22;7914;50.842;0.166;2023-02-03T16:14:30;11.80;1.00
15630;DHT22;7914;50.842;0.166;2023-02-03T16:16:51;11.70;1.00
15630;DHT22;7914;50.842;0.166;2023-02-03T16:19:22;11.70;1.00
15630;DHT22;7914;50.842;0.166;2023-02-03T16:24:38;11.60;1.00
15630;DHT22;7914;50.842;0.166;2023-02-03T16:30:39;11.60;1.00
15630;DHT22;7914;50.842;0.166;2023-02-03T16:33:09;11.50;1.00
15630;DHT22;7914;50.842;0.166;2023-02-03T16:36:00;11.50;1.00
15630;DHT22;7914;50.842;0.166;2023-02-03T16:38:48;11.50;1.00
15630;DHT22;7914;50.842;0.166;2023-02-03T16:41:33;11.50;1.00
15630;DHT22;7914;50.842;0.166;2023-02-03T16:44:18;11.50;1.00
15630;DHT22;7914;50.842;0.166;2023-02-03T16:47:02;11.50;1.00
15630;DHT22;7914;50.842;0.166;2023-02-03T16:49:46;11.40;1.00
15630;DHT22;7914;50.842;0.166;2023-02-03T16:52:31;11.40;1.00
15630;DHT22;7914;50.842;0.166;2023-02-03T16:54:57;11.30;1.00
15630;DHT22;7914;50.842;0.166;2023-02-03T16:57:24;11.30;1.00
15630;DHT22;7914;50.842;0.166;2023-02-03T16:59:50;11.30;1.00
15630;DHT22;7914;50.842;0.166;2023-02-03T17:02:16;11.40;1.00
15630;DHT22;7914;50.842;0.166;2023-02-03T17:04:41;11.30;1.00
15630;DHT22;7914;50.842;0.166;2023-02-03T17:07:07;11.20;1.00
15630;DHT22;7914;50.842;0.166;2023-02-03T17:09:33;11.20;1.00
15630;DHT22;7914;50.842;0.166;2023-02-03T17:12:00;11.20;1.00
15630;DHT22;7914;50.842;0.166;2023-02-03T17:14:26;11.20;1.00
15630;DHT22;7914;50.842;0.166;2023-02-03T17:16:52;11.10;1.00
15630;DHT22;7914;50.842;0.166;2023-02-03T17:19:18;11.20;1.00
15630;DHT22;7914;50.842;0.166;2023-02-03T17:21:43;11.10;1.00
15630;DHT22;7914;50.842;0.166;2023-02-03T17:24:09;11.20;1.00
15630;DHT22;7914;50.842;0.166;2023-02-03T17:26:36;11.20;1.00
15630;DHT22;7914;50.842;0.166;2023-02-03T17:29:02;11.10;1.00
15630;DHT22;7914;50.842;0.166;2023-02-03T17:31:28;11.10;1.00
15630;DHT22;7914;50.842;0.166;2023-02-03T17:33:54;11.10;1.00
15630;DHT22;7914;50.842;0.166;2023-02-03T17:36:21;11.10;1.00
15630;DHT22;7914;50.842;0.166;2023-02-03T17:38:56;11.10;1.00
15630;DHT22;7914;50.842;0.166;2023-02-03T17:41:24;11.10;1.00
15630;DHT22;7914;50.842;0.166;2023-02-03T17:43:50;11.10;1.00
15630;DHT22;7914;50.842;0.166;2023-02-03T17:46:19;11.10;1.00
15630;DHT22;7914;50.842;0.166;2023-02-03T17:48:45;11.10;1.00
15630;DHT22;7914;50.842;0.166;2023-02-03T17:51:19;11.10;1.00
15630;DHT22;7914;50.842;0.166;2023-02-03T17:53:47;11.00;1.00
15630;DHT22;7914;50.842;0.166;2023-02-03T17:56:15;10.90;1.00
15630;DHT22;7914;50.842;0.166;2023-02-03T17:58:42;11.00;1.00
15630;DHT22;7914;50.842;0.166;2023-02-03T18:01:17;10.90;1.00
15630;DHT22;7914;50.842;0.166;2023-02-03T18:03:50;10.90;1.00
15630;DHT22;7914;50.842;0.166;2023-02-03T18:06:18;10.90;1.00
15630;DHT22;7914;50.842;0.166;2023-02-03T18:08:45;10.90;1.00
15630;DHT22;7914;50.842;0.166;2023-02-03T18:11:12;10.90;1.00
15630;DHT22;7914;50.842;0.166;2023-02-03T18:13:40;10.90;1.00
15630;DHT22;7914;50.842;0.166;2023-02-03T18:16:11;10.90;1.00
15630;DHT22;7914;50.842;0.166;2023-02-03T18:18:37;10.80;1.00
15630;DHT22;7914;50.842;0.166;2023-02-03T18:21:04;10.80;1.00
15630;DHT22;7914;50.842;0.166;2023-02-03T18:23:31;10.80;1.00
15630;DHT22;7914;50.842;0.166;2023-02-03T18:25:57;10.70;1.00
15630;DHT22;7914;50.842;0.166;2023-02-03T18:28:23;10.70;1.00
15630;DHT22;7914;50.842;0.166;2023-02-03T18:30:49;10.70;1.00
15630;DHT22;7914;50.842;0.166;2023-02-03T18:33:16;10.60;1.00
15630;DHT22;7914;50.842;0.166;2023-02-03T18:35:41;10.60;1.00
15630;DHT22;7914;50.842;0.166;2023-02-03T18:38:08;10.50;1.00
15630;DHT22;7914;50.842;0.166;2023-02-03T18:40:36;10.40;1.00
15630;DHT22;7914;50.842;0.166;2023-02-03T18:43:02;10.20;1.00
15630;DHT22;7914;50.842;0.166;2023-02-03T18:45:28;10.10;1.00
15630;DHT22;7914;50.842;0.166;2023-02-03T18:47:54;10.00;1.00
15630;DHT22;7914;50.842;0.166;2023-02-03T18:50:20;10.00;26.70